Phoenix, Arizona
Traffic Map
Current Weather Conditions
Phoenix, Arizona
Clear
Clear
21°
Feels Like: 21°
Wind Chill: 21° Ceiling: Unl
Heat Index: 21° Visibility: 10mi
Dew Point: -8° Wind: 3mph
Humidity: 14% Direction: 230° (SW)
Pressure: 30.16in Gusts: 0mph
Raw Report DataKPHX 270051Z 23003KT 10SM CLR 21/M08 A3016 RMK AO2 SLP205 T02061083
Traffic Incident Summary
Active as of:
Severity:
Category:
InformationThere was an issue retrieving the traffic information for this location. Please try a different location or try again shortly.
Advertisements
Track Severe Weather on mobile